Time;durP1;ratioP1;P1;durP2;ratioP2;P2;SDS_P1;SDS_P2;PMS_P1;PMS_P2;Temp;Humidity;BMP_temperature;BMP_pressure;BME280_temperature;BME280_humidity;BME280_pressure;Samples;Min_cycle;Max_cycle;Signal;HPM_P1;HPM_P2
2021/07/24 00:02:24;;;;;;;24.42;12.68;;;19.60;99.90;;;;;;5001056;28;20229;-85
2021/07/24 00:04:50;;;;;;;20.05;13.20;;;19.60;99.90;;;;;;4993006;28;20222;-85
2021/07/24 00:07:15;;;;;;;24.23;12.63;;;19.60;99.90;;;;;;4994810;28;20186;-86
2021/07/24 00:09:41;;;;;;;22.40;13.18;;;19.60;99.90;;;;;;4993093;28;20185;-85
2021/07/24 00:12:07;;;;;;;22.55;12.40;;;19.60;99.90;;;;;;4993183;28;20217;-86
2021/07/24 00:14:33;;;;;;;27.13;13.70;;;19.50;99.90;;;;;;4976930;28;20193;-86
2021/07/24 00:16:58;;;;;;;24.95;13.00;;;19.50;99.90;;;;;;4993038;28;20232;-86
2021/07/24 00:19:24;;;;;;;19.33;12.75;;;19.50;99.90;;;;;;4993068;28;20186;-85
2021/07/24 00:21:50;;;;;;;21.13;11.95;;;19.50;99.90;;;;;;4976560;28;20209;-85
2021/07/24 00:24:17;;;;;;;16.60;11.18;;;19.50;99.90;;;;;;4994253;28;20224;-85
2021/07/24 00:26:42;;;;;;;22.80;13.18;;;18.70;99.90;;;;;;4992919;28;20199;-85
2021/07/24 00:29:08;;;;;;;24.00;12.88;;;19.50;99.90;;;;;;5009285;28;20190;-85
2021/07/24 00:31:35;;;;;;;25.70;11.90;;;19.50;99.90;;;;;;4993232;28;20673;-86
2021/07/24 00:34:01;;;;;;;22.23;11.77;;;19.50;99.90;;;;;;4994177;28;20186;-86
2021/07/24 00:36:27;;;;;;;19.55;11.93;;;19.50;99.90;;;;;;4994290;28;20202;-86
2021/07/24 00:38:53;;;;;;;17.20;11.65;;;19.50;99.90;;;;;;4992419;28;20702;-85
2021/07/24 00:41:45;;;;;;;21.48;12.05;;;19.50;99.90;;;;;;4993049;28;20181;-86
2021/07/24 00:44:14;;;;;;;23.42;11.68;;;19.40;99.90;;;;;;5008964;28;20330;-85
2021/07/24 00:46:42;;;;;;;19.88;11.50;;;19.40;99.90;;;;;;4993849;28;20253;-85
2021/07/24 00:49:10;;;;;;;20.02;12.10;;;19.40;99.90;;;;;;4992690;28;20738;-85
2021/07/24 00:51:38;;;;;;;22.75;11.75;;;19.40;99.90;;;;;;4976078;28;20577;-85
2021/07/24 00:54:04;;;;;;;21.77;11.85;;;19.40;99.90;;;;;;4976826;28;20566;-86
2021/07/24 00:56:30;;;;;;;22.23;12.15;;;19.40;99.90;;;;;;4994141;28;20180;-85
2021/07/24 00:58:56;;;;;;;21.67;11.93;;;19.40;99.90;;;;;;5008462;28;20654;-85
2021/07/24 01:01:22;;;;;;;25.58;12.25;;;19.40;99.90;;;;;;4992387;28;20316;-84
2021/07/24 01:03:48;;;;;;;23.00;11.40;;;19.40;99.90;;;;;;5008516;28;20569;-85
2021/07/24 01:06:15;;;;;;;17.90;11.80;;;19.30;99.90;;;;;;4993931;28;20233;-86
2021/07/24 01:08:43;;;;;;;20.45;12.95;;;19.30;99.90;;;;;;4993522;28;20182;-86
2021/07/24 01:11:12;;;;;;;22.08;12.45;;;19.30;99.90;;;;;;4992747;28;20185;-86
2021/07/24 01:13:39;;;;;;;22.50;12.20;;;19.20;99.90;;;;;;4993610;28;20193;-86
2021/07/24 01:16:06;;;;;;;21.65;12.45;;;19.20;99.90;;;;;;4993793;28;20216;-85
2021/07/24 01:18:32;;;;;;;21.85;12.38;;;19.20;99.90;;;;;;4992618;28;20674;-86
2021/07/24 01:21:02;;;;;;;19.52;11.75;;;19.20;99.90;;;;;;4993478;28;20201;-86
2021/07/24 01:23:29;;;;;;;17.38;12.00;;;19.20;99.90;;;;;;4994897;28;20212;-86
2021/07/24 01:25:55;;;;;;;20.58;12.77;;;19.20;99.90;;;;;;5012276;28;20190;-85
2021/07/24 01:28:30;;;;;;;22.55;12.48;;;19.20;99.90;;;;;;4997715;28;20541;-85
2021/07/24 01:30:57;;;;;;;18.00;11.85;;;19.20;99.90;;;;;;4997198;28;20177;-86
2021/07/24 01:33:23;;;;;;;16.73;11.32;;;19.20;99.90;;;;;;4996322;28;20182;-85
2021/07/24 01:35:50;;;;;;;25.92;11.65;;;19.20;99.90;;;;;;4996047;28;20204;-85
2021/07/24 01:38:17;;;;;;;22.75;12.07;;;17.90;99.90;;;;;;4997339;28;20225;-84
2021/07/24 01:40:43;;;;;;;19.10;11.68;;;19.10;99.90;;;;;;5012168;28;20182;-85
2021/07/24 01:43:09;;;;;;;22.17;13.05;;;19.20;99.90;;;;;;4997423;28;20289;-85
2021/07/24 01:45:37;;;;;;;22.02;12.45;;;19.10;99.90;;;;;;4996413;28;20189;-85
2021/07/24 01:48:07;;;;;;;23.83;12.93;;;19.10;99.90;;;;;;4997334;28;20181;-85
2021/07/24 01:53:18;;;;;;;19.73;12.23;;;19.10;99.90;;;;;;4997051;28;20177;-84
2021/07/24 01:55:51;;;;;;;21.15;11.77;;;19.10;99.90;;;;;;4996999;28;20174;-84
2021/07/24 01:58:25;;;;;;;16.75;11.57;;;19.10;99.90;;;;;;5012286;28;20186;-85
2021/07/24 02:00:52;;;;;;;20.85;11.98;;;19.00;99.90;;;;;;5011619;28;20174;-85
2021/07/24 02:03:19;;;;;;;20.80;12.13;;;19.10;99.90;;;;;;4997467;28;20209;-85
2021/07/24 02:05:49;;;;;;;19.80;12.32;;;19.00;99.90;;;;;;4996658;28;20265;-85
2021/07/24 02:08:23;;;;;;;16.48;11.80;;;19.00;99.90;;;;;;4994151;28;20192;-85
2021/07/24 02:10:50;;;;;;;18.10;11.13;;;19.00;99.90;;;;;;4996664;28;20324;-85
2021/07/24 02:13:17;;;;;;;17.73;11.73;;;19.00;99.90;;;;;;4979434;28;20197;-86
2021/07/24 02:15:43;;;;;;;24.38;13.02;;;19.00;99.90;;;;;;5011655;28;20178;-85
2021/07/24 02:18:13;;;;;;;18.27;12.82;;;19.00;99.90;;;;;;4996851;28;20190;-85
2021/07/24 02:20:38;;;;;;;18.30;13.52;;;18.90;99.90;;;;;;4996537;28;20654;-85
2021/07/24 02:23:04;;;;;;;25.20;12.95;;;18.90;99.90;;;;;;4979046;28;20273;-85
2021/07/24 02:25:30;;;;;;;19.20;13.00;;;18.90;99.90;;;;;;4995651;28;20182;-85
2021/07/24 02:27:55;;;;;;;20.48;13.07;;;18.90;99.90;;;;;;4979048;28;20662;-86
2021/07/24 02:30:21;;;;;;;17.42;12.15;;;18.90;99.90;;;;;;4995367;28;20629;-86
2021/07/24 02:32:47;;;;;;;17.70;12.27;;;18.90;99.90;;;;;;4995053;28;20174;-85
2021/07/24 02:35:14;;;;;;;18.60;12.32;;;18.90;99.90;;;;;;4996471;28;20545;-85
2021/07/24 02:37:40;;;;;;;18.10;11.98;;;18.90;99.90;;;;;;4996329;28;20170;-85
2021/07/24 02:40:06;;;;;;;18.10;12.52;;;18.90;99.90;;;;;;4996359;28;20206;-85
2021/07/24 02:42:32;;;;;;;19.20;12.30;;;18.90;99.90;;;;;;4996404;28;20705;-85
2021/07/24 02:44:58;;;;;;;20.05;12.27;;;18.90;99.90;;;;;;4994901;28;20205;-85
2021/07/24 02:47:24;;;;;;;20.35;13.00;;;18.80;99.90;;;;;;4996211;28;20182;-85
2021/07/24 02:49:50;;;;;;;20.73;12.05;;;18.90;99.90;;;;;;4995927;28;20694;-86
2021/07/24 02:52:16;;;;;;;22.05;12.27;;;18.80;99.90;;;;;;4996129;28;20182;-86
2021/07/24 02:54:42;;;;;;;22.23;12.13;;;18.90;99.90;;;;;;4996126;28;20173;-86
2021/07/24 02:57:08;;;;;;;24.42;13.15;;;18.80;99.90;;;;;;4995678;28;20178;-85
2021/07/24 02:59:34;;;;;;;23.42;13.30;;;18.80;99.90;;;;;;4994992;28;20592;-85
2021/07/24 03:01:59;;;;;;;20.48;12.00;;;18.80;99.90;;;;;;5010887;28;20631;-85
2021/07/24 03:04:25;;;;;;;21.40;12.07;;;18.80;99.90;;;;;;4996141;28;20655;-86
2021/07/24 03:06:51;;;;;;;20.25;11.93;;;18.80;99.90;;;;;;4994457;28;20266;-89
2021/07/24 03:09:17;;;;;;;22.00;12.88;;;18.80;99.90;;;;;;4994876;28;20646;-87
2021/07/24 03:11:43;;;;;;;29.52;12.48;;;18.80;99.90;;;;;;4995757;28;20204;-86
2021/07/24 03:14:08;;;;;;;21.77;12.80;;;18.90;99.90;;;;;;4994495;28;20642;-88
2021/07/24 03:16:34;;;;;;;19.67;11.55;;;18.90;99.90;;;;;;4995737;28;20182;-88
2021/07/24 03:19:00;;;;;;;20.35;12.15;;;18.90;99.90;;;;;;4994345;28;20545;-87
2021/07/24 03:21:26;;;;;;;22.85;12.18;;;18.90;99.90;;;;;;4995708;28;20702;-86
2021/07/24 03:23:52;;;;;;;18.98;12.35;;;18.90;99.90;;;;;;4977791;28;20283;-86
2021/07/24 03:26:19;;;;;;;19.67;11.85;;;18.90;99.90;;;;;;4995645;28;20174;-87
2021/07/24 03:28:45;;;;;;;20.40;12.52;;;19.00;99.90;;;;;;5010762;28;20186;-86
2021/07/24 03:31:11;;;;;;;21.77;12.35;;;19.00;99.90;;;;;;4994183;28;20693;-87
2021/07/24 03:33:36;;;;;;;23.20;12.20;;;19.00;99.90;;;;;;4995665;28;20216;-88
2021/07/24 03:36:03;;;;;;;15.80;11.48;;;19.00;99.90;;;;;;5010309;28;20189;-88
2021/07/24 03:38:28;;;;;;;21.83;12.88;;;19.00;99.90;;;;;;4995760;28;20236;-87
2021/07/24 03:40:54;;;;;;;22.30;12.02;;;19.00;99.90;;;;;;4977690;28;20178;-87
2021/07/24 03:43:20;;;;;;;22.13;12.00;;;19.00;99.90;;;;;;4995231;28;20237;-86
2021/07/24 03:45:46;;;;;;;19.38;11.10;;;19.00;99.90;;;;;;4994475;28;20186;-85
2021/07/24 03:48:12;;;;;;;17.17;11.45;;;19.10;99.90;;;;;;4977690;28;20193;-86
2021/07/24 03:50:37;;;;;;;17.40;12.07;;;19.10;99.90;;;;;;4995201;28;20639;-84
2021/07/24 03:53:03;;;;;;;22.58;12.07;;;19.20;99.90;;;;;;4993592;28;20182;-85
2021/07/24 03:55:29;;;;;;;19.35;12.15;;;19.10;99.90;;;;;;4977782;28;20178;-84
2021/07/24 03:57:56;;;;;;;18.67;12.18;;;19.10;99.90;;;;;;4994726;28;20190;-84
2021/07/24 04:00:23;;;;;;;17.75;11.70;;;19.20;99.90;;;;;;4994832;28;20610;-85
2021/07/24 04:02:50;;;;;;;20.02;11.90;;;19.20;99.90;;;;;;4977598;28;20523;-85
2021/07/24 04:05:17;;;;;;;18.70;11.52;;;19.20;99.90;;;;;;4994552;28;20220;-85
2021/07/24 04:07:43;;;;;;;22.20;13.15;;;19.30;99.90;;;;;;4977454;28;20273;-85
2021/07/24 04:10:11;;;;;;;19.67;12.63;;;19.30;99.90;;;;;;4994403;28;20182;-85
2021/07/24 04:12:39;;;;;;;21.30;12.07;;;19.30;99.90;;;;;;4994668;28;20181;-85
2021/07/24 04:15:06;;;;;;;19.70;12.13;;;19.40;99.90;;;;;;4994212;28;20659;-85
2021/07/24 04:17:32;;;;;;;21.17;11.35;;;19.40;99.90;;;;;;4994624;28;20181;-85
2021/07/24 04:19:58;;;;;;;22.05;12.80;;;19.40;99.90;;;;;;4994351;28;20174;-85
2021/07/24 04:22:24;;;;;;;22.20;12.20;;;19.50;99.90;;;;;;4993389;28;20182;-85
2021/07/24 04:24:50;;;;;;;23.90;12.32;;;19.50;99.90;;;;;;4994387;28;20217;-85
2021/07/24 04:27:16;;;;;;;17.58;11.88;;;19.50;99.90;;;;;;4995076;28;20181;-85
2021/07/24 04:29:41;;;;;;;22.88;11.88;;;19.60;99.90;;;;;;4977325;28;20196;-85
2021/07/24 04:32:07;;;;;;;19.75;11.20;;;19.60;99.90;;;;;;4992973;28;20538;-85
2021/07/24 04:34:33;;;;;;;26.30;11.85;;;19.70;99.90;;;;;;4976844;28;20562;-85
2021/07/24 04:36:59;;;;;;;20.27;12.52;;;19.70;99.90;;;;;;4992630;28;20181;-86
2021/07/24 04:39:25;;;;;;;17.90;12.20;;;19.80;99.90;;;;;;4994482;28;20235;-85
2021/07/24 04:41:50;;;;;;;21.80;11.98;;;19.80;99.90;;;;;;4994032;28;20182;-86
2021/07/24 04:44:16;;;;;;;19.45;11.38;;;19.90;99.90;;;;;;4992610;28;20210;-94
2021/07/24 04:46:42;;;;;;;19.20;11.68;;;19.90;99.90;;;;;;4992652;28;20188;-86
2021/07/24 04:49:07;;;;;;;16.45;11.02;;;19.80;99.90;;;;;;5009275;28;20186;-86
2021/07/24 04:51:34;;;;;;;24.02;12.43;;;19.90;99.90;;;;;;5009290;28;20614;-84
2021/07/24 04:54:02;;;;;;;21.98;10.75;;;20.00;99.90;;;;;;4976549;28;20269;-86
2021/07/24 04:56:28;;;;;;;19.02;11.52;;;20.00;99.90;;;;;;4993856;28;20174;-86
2021/07/24 04:58:54;;;;;;;19.73;11.95;;;20.10;99.90;;;;;;4992178;28;20231;-86
2021/07/24 05:01:21;;;;;;;16.95;10.35;;;20.20;99.90;;;;;;4993776;28;20182;-85
2021/07/24 05:03:47;;;;;;;19.88;9.63;;;20.20;99.90;;;;;;4976273;28;20566;-87
2021/07/24 05:06:14;;;;;;;14.60;10.20;;;20.30;99.90;;;;;;4992105;28;20190;-89
2021/07/24 05:08:39;;;;;;;18.45;10.45;;;20.30;99.90;;;;;;4993358;28;20189;-86
2021/07/24 05:11:05;;;;;;;16.17;9.98;;;20.40;99.90;;;;;;4991906;28;20188;-86
2021/07/24 05:13:31;;;;;;;15.15;9.45;;;20.40;99.90;;;;;;4960227;28;20197;-87
2021/07/24 05:15:57;;;;;;;15.70;9.15;;;20.50;99.90;;;;;;4977320;28;20575;-86
2021/07/24 05:18:23;;;;;;;12.60;8.98;;;20.50;99.90;;;;;;5000845;28;20185;-86
2021/07/24 05:20:49;;;;;;;14.40;9.63;;;20.60;99.90;;;;;;4984592;28;20201;-86
2021/07/24 05:23:15;;;;;;;16.35;9.88;;;20.70;99.90;;;;;;4982779;28;20281;-87
2021/07/24 05:25:42;;;;;;;18.90;9.77;;;20.80;99.90;;;;;;4992189;28;20273;-87
2021/07/24 05:28:08;;;;;;;13.00;9.25;;;21.00;99.90;;;;;;4993040;28;20182;-87
2021/07/24 05:30:33;;;;;;;19.02;9.30;;;21.10;99.90;;;;;;4976633;28;20661;-87
2021/07/24 05:32:59;;;;;;;15.80;9.65;;;21.10;99.90;;;;;;4992095;28;20186;-87
2021/07/24 05:35:25;;;;;;;14.75;8.50;;;21.20;99.90;;;;;;4992066;28;20638;-88
2021/07/24 05:37:51;;;;;;;15.95;8.98;;;21.30;99.90;;;;;;4993406;28;20226;-88
2021/07/24 05:40:17;;;;;;;15.05;9.20;;;21.40;99.90;;;;;;4975900;28;20202;-89
2021/07/24 05:42:42;;;;;;;21.73;9.30;;;21.50;99.90;;;;;;4998754;28;20189;-88
2021/07/24 05:45:09;;;;;;;15.95;9.77;;;21.50;99.90;;;;;;4975671;28;20689;-88
2021/07/24 05:47:35;;;;;;;16.55;8.63;;;21.50;99.90;;;;;;4992913;28;20252;-89
2021/07/24 05:50:02;;;;;;;15.38;8.57;;;21.60;99.90;;;;;;4993287;28;20640;-88
2021/07/24 05:52:27;;;;;;;21.02;9.75;;;21.60;99.90;;;;;;4993569;28;20248;-88
2021/07/24 05:54:53;;;;;;;18.08;9.40;;;21.70;99.90;;;;;;4975754;28;20190;-88
2021/07/24 05:57:19;;;;;;;15.82;9.88;;;21.70;99.90;;;;;;4992255;28;20185;-88
2021/07/24 05:59:45;;;;;;;19.15;9.32;;;21.80;99.90;;;;;;4993547;28;20642;-88
2021/07/24 06:02:12;;;;;;;13.13;8.50;;;21.80;99.90;;;;;;4991954;28;20272;-89
2021/07/24 06:04:42;;;;;;;18.13;8.82;;;21.90;99.90;;;;;;4993110;28;20670;-88
2021/07/24 06:07:09;;;;;;;13.10;7.80;;;21.70;99.90;;;;;;4960946;28;20649;-88
2021/07/24 06:09:35;;;;;;;16.52;8.35;;;21.80;99.90;;;;;;4993416;28;20185;-89
2021/07/24 06:12:00;;;;;;;15.52;8.07;;;21.90;99.90;;;;;;4987551;28;20190;-88
2021/07/24 06:14:26;;;;;;;23.73;9.00;;;21.90;99.90;;;;;;4987803;28;20193;-89
2021/07/24 06:16:53;;;;;;;52.63;10.35;;;20.30;99.90;;;;;;4989659;28;20178;-88
2021/07/24 06:19:19;;;;;;;12.93;7.88;;;22.10;99.90;;;;;;5008281;28;20177;-88
2021/07/24 06:21:45;;;;;;;18.65;8.68;;;22.20;99.90;;;;;;5013606;28;20177;-89
2021/07/24 06:24:11;;;;;;;18.25;8.27;;;22.10;99.90;;;;;;5012781;28;20201;-88
2021/07/24 06:26:38;;;;;;;15.30;8.23;;;22.40;99.90;;;;;;5031271;28;20205;-87
2021/07/24 06:29:08;;;;;;;19.70;8.73;;;22.40;99.90;;;;;;5014913;28;20177;-88
2021/07/24 06:31:35;;;;;;;12.52;8.02;;;22.40;99.90;;;;;;5015914;28;20183;-88
2021/07/24 06:34:02;;;;;;;14.82;7.35;;;21.80;99.90;;;;;;5013009;28;20190;-87
2021/07/24 06:36:28;;;;;;;49.50;9.40;;;22.50;99.90;;;;;;4980074;28;20190;-88
2021/07/24 06:38:54;;;;;;;13.85;7.78;;;22.60;99.90;;;;;;5009719;28;20256;-87
2021/07/24 06:41:20;;;;;;;11.65;7.03;;;22.60;99.90;;;;;;4978163;28;20329;-87
2021/07/24 06:43:46;;;;;;;14.27;7.70;;;22.60;99.90;;;;;;4995988;28;20222;-87
2021/07/24 06:46:12;;;;;;;21.65;7.75;;;22.70;99.90;;;;;;4994059;28;20189;-88
2021/07/24 06:48:39;;;;;;;11.43;7.13;;;22.80;99.90;;;;;;5009042;28;20178;-88
2021/07/24 06:51:06;;;;;;;12.27;6.90;;;22.90;99.90;;;;;;4997441;28;20646;-88
2021/07/24 06:53:32;;;;;;;10.85;6.85;;;23.00;99.90;;;;;;5003970;28;20221;-88
2021/07/24 06:55:58;;;;;;;18.83;6.93;;;23.00;99.90;;;;;;5013465;28;20823;-88
2021/07/24 06:58:24;;;;;;;14.38;7.03;;;23.10;99.90;;;;;;4984459;28;20189;-89
2021/07/24 07:00:49;;;;;;;12.65;8.55;;;23.20;99.90;;;;;;5011561;28;20196;-88
2021/07/24 07:03:15;;;;;;;11.18;7.15;;;23.30;99.90;;;;;;5002628;28;20253;-88
2021/07/24 07:05:41;;;;;;;9.98;6.18;;;23.40;99.90;;;;;;5001532;28;20189;-91
2021/07/24 07:08:06;;;;;;;9.40;6.50;;;24.10;99.90;;;;;;5012332;28;20197;-90
2021/07/24 07:10:32;;;;;;;16.42;7.68;;;23.70;99.90;;;;;;4990877;28;20181;-87
2021/07/24 07:12:57;;;;;;;14.60;6.70;;;23.80;99.90;;;;;;4992837;28;20197;-88
2021/07/24 07:15:25;;;;;;;13.88;7.55;;;23.80;99.90;;;;;;5007317;28;20629;-88
2021/07/24 07:17:54;;;;;;;16.33;8.38;;;23.80;99.90;;;;;;4992503;28;20186;-87
2021/07/24 07:20:20;;;;;;;22.95;8.85;;;23.90;99.90;;;;;;5000372;28;20185;-89
2021/07/24 07:22:46;;;;;;;11.43;7.72;;;24.00;99.90;;;;;;5010943;28;20793;-89
2021/07/24 07:25:12;;;;;;;23.02;8.70;;;24.00;99.90;;;;;;5002442;28;20254;-89
2021/07/24 07:27:42;;;;;;;15.13;8.18;;;24.10;99.90;;;;;;5028774;28;20661;-90
2021/07/24 07:30:09;;;;;;;15.52;6.88;;;24.20;99.90;;;;;;5009738;28;20909;-90
2021/07/24 07:32:35;;;;;;;17.50;8.73;;;24.30;99.90;;;;;;5011744;28;20181;-89
2021/07/24 07:35:01;;;;;;;10.13;7.18;;;24.40;99.90;;;;;;4995618;28;20192;-90
2021/07/24 07:37:27;;;;;;;18.40;10.90;;;24.40;99.90;;;;;;5003930;28;20264;-88
2021/07/24 07:39:53;;;;;;;11.43;7.45;;;24.50;99.90;;;;;;5000702;28;20252;-89
2021/07/24 07:42:19;;;;;;;9.90;6.93;;;24.60;99.90;;;;;;5009894;28;20181;-89
2021/07/24 07:44:45;;;;;;;11.27;7.28;;;24.60;99.90;;;;;;4992741;28;20224;-89
2021/07/24 07:47:11;;;;;;;13.95;7.35;;;24.60;99.90;;;;;;5011161;28;20193;-88
2021/07/24 07:49:37;;;;;;;9.88;6.55;;;24.60;99.90;;;;;;4997934;28;20197;-88
2021/07/24 07:52:05;;;;;;;25.70;6.55;;;24.60;99.90;;;;;;4997802;28;20192;-88
2021/07/24 07:54:32;;;;;;;13.95;7.57;;;24.60;99.90;;;;;;5011108;28;20267;-89
2021/07/24 07:57:01;;;;;;;12.93;7.03;;;24.60;99.90;;;;;;4990160;28;20194;-88
2021/07/24 07:59:27;;;;;;;10.10;7.18;;;24.70;99.90;;;;;;5002690;28;20188;-88
2021/07/24 08:01:53;;;;;;;28.38;9.20;;;24.60;99.90;;;;;;5010464;28;20189;-88
2021/07/24 08:04:19;;;;;;;10.00;6.70;;;24.60;99.90;;;;;;5003372;28;20201;-87
2021/07/24 08:06:44;;;;;;;11.93;7.10;;;24.70;99.90;;;;;;4993366;28;20198;-88
2021/07/24 08:09:10;;;;;;;249.87;20.17;;;24.70;99.90;;;;;;5010141;28;20426;-89
2021/07/24 08:11:36;;;;;;;9.90;5.93;;;24.80;99.90;;;;;;4999899;28;20190;-87
2021/07/24 08:14:02;;;;;;;11.02;6.65;;;24.90;99.90;;;;;;4992971;28;20186;-89
2021/07/24 08:16:28;;;;;;;10.00;6.45;;;25.10;99.90;;;;;;4992831;28;20180;-88
2021/07/24 08:18:53;;;;;;;17.60;7.32;;;25.20;99.90;;;;;;5003957;28;20198;-88
2021/07/24 08:21:19;;;;;;;11.10;6.28;;;25.30;99.90;;;;;;4993125;28;20190;-89
2021/07/24 08:23:45;;;;;;;60.83;10.95;;;25.40;99.90;;;;;;4992412;28;20275;-91
2021/07/24 08:26:11;;;;;;;16.08;6.40;;;25.50;99.90;;;;;;5010937;28;20189;-91
2021/07/24 08:28:37;;;;;;;10.68;5.70;;;25.60;99.90;;;;;;4999499;28;20280;-92
2021/07/24 08:31:02;;;;;;;14.48;5.85;;;25.70;99.90;;;;;;5005722;28;20273;-88
2021/07/24 08:33:28;;;;;;;8.75;6.63;;;25.80;99.90;;;;;;5007434;28;20607;-92
2021/07/24 08:35:59;;;;;;;9.18;6.05;;;25.70;99.90;;;;;;4992335;28;20186;-91
2021/07/24 08:38:24;;;;;;;25.33;17.08;;;25.70;98.00;;;;;;4990920;28;20229;-89
2021/07/24 08:40:50;;;;;;;10.95;5.38;;;25.70;99.00;;;;;;4991277;28;20535;-88
2021/07/24 08:43:16;;;;;;;8.18;5.63;;;25.80;97.10;;;;;;4996583;28;20202;-90
2021/07/24 08:45:43;;;;;;;10.13;6.15;;;25.90;96.90;;;;;;4982950;28;20193;-88
2021/07/24 08:48:09;;;;;;;10.38;6.90;;;25.90;97.60;;;;;;5006347;28;20181;-91
2021/07/24 08:50:36;;;;;;;13.00;7.47;;;26.00;95.70;;;;;;5004178;28;20189;-90
2021/07/24 08:53:05;;;;;;;13.02;6.40;;;26.20;96.60;;;;;;4996419;28;20288;-89
2021/07/24 08:55:33;;;;;;;6.72;4.88;;;26.10;96.30;;;;;;5007609;28;20228;-89
2021/07/24 08:58:00;;;;;;;9.77;5.03;;;26.00;94.00;;;;;;5009176;28;20200;-91
2021/07/24 09:00:27;;;;;;;18.98;5.88;;;25.70;93.60;;;;;;5011396;28;20529;-88
2021/07/24 09:02:56;;;;;;;10.20;5.30;;;25.70;93.30;;;;;;5010551;28;20185;-90
2021/07/24 09:05:22;;;;;;;10.52;5.10;;;25.70;93.00;;;;;;4997663;28;20249;-89
2021/07/24 09:07:50;;;;;;;11.65;6.28;;;25.70;93.60;;;;;;5010477;28;20271;-89
2021/07/24 09:10:18;;;;;;;8.43;5.68;;;25.60;93.60;;;;;;4996909;28;20200;-89
2021/07/24 09:12:46;;;;;;;20.85;5.75;;;25.50;93.80;;;;;;4986400;28;20228;-90
2021/07/24 09:15:15;;;;;;;10.00;6.13;;;25.50;93.40;;;;;;5011864;28;20661;-89
2021/07/24 09:17:41;;;;;;;9.60;6.03;;;25.50;93.90;;;;;;5005745;28;20190;-89
2021/07/24 09:20:08;;;;;;;9.75;5.60;;;25.40;94.20;;;;;;4987200;28;20185;-91
2021/07/24 09:22:35;;;;;;;10.38;5.93;;;25.40;94.70;;;;;;4987990;28;20195;-93
2021/07/24 09:25:05;;;;;;;14.85;5.40;;;25.30;94.40;;;;;;4993397;28;20580;-88
2021/07/24 09:27:31;;;;;;;9.38;5.30;;;25.30;95.90;;;;;;5010209;28;20200;-90
2021/07/24 09:29:56;;;;;;;16.83;6.32;;;25.30;95.80;;;;;;5005029;28;20185;-89
2021/07/24 09:32:22;;;;;;;14.15;7.80;;;26.40;96.60;;;;;;5000603;28;20185;-91
2021/07/24 09:34:48;;;;;;;12.32;6.65;;;25.30;97.20;;;;;;5001356;28;20185;-89
2021/07/24 09:37:25;;;;;;;8.23;5.72;;;25.30;97.40;;;;;;4992506;28;20658;-89
2021/07/24 09:39:51;;;;;;;7.40;5.20;;;25.40;94.30;;;;;;5008843;28;20243;-89
2021/07/24 09:42:19;;;;;;;7.22;5.60;;;27.30;95.80;;;;;;5010413;28;20192;-94
2021/07/24 09:44:44;;;;;;;7.70;5.35;;;25.30;96.00;;;;;;5014244;28;20312;-90
2021/07/24 09:47:10;;;;;;;10.18;6.13;;;25.30;94.80;;;;;;4996979;28;20730;-92
2021/07/24 09:49:41;;;;;;;7.95;6.15;;;25.30;96.00;;;;;;4994092;28;20232;-90
2021/07/24 09:52:11;;;;;;;11.45;6.75;;;25.30;95.30;;;;;;5001662;28;20200;-91
2021/07/24 09:54:39;;;;;;;6.72;5.03;;;25.10;94.70;;;;;;5007634;28;20240;-90
2021/07/24 09:57:05;;;;;;;8.20;5.63;;;25.20;95.40;;;;;;5002326;28;20264;-91
2021/07/24 09:59:32;;;;;;;9.50;6.38;;;25.20;94.60;;;;;;5002182;28;20328;-91
2021/07/24 10:02:01;;;;;;;10.90;6.10;;;25.20;94.00;;;;;;5024779;28;20204;-88
2021/07/24 10:04:29;;;;;;;8.68;6.13;;;25.30;93.60;;;;;;4995347;28;20248;-89
2021/07/24 10:07:04;;;;;;;8.95;5.63;;;25.10;94.00;;;;;;4990624;28;20280;-89
2021/07/24 10:09:33;;;;;;;10.57;5.60;;;25.20;92.80;;;;;;5008663;28;20682;-89
2021/07/24 10:12:08;;;;;;;9.05;5.80;;;25.10;92.70;;;;;;4990274;28;20181;-88
2021/07/24 10:14:37;;;;;;;12.30;5.53;;;25.10;93.70;;;;;;5015051;28;20185;-88
2021/07/24 10:17:03;;;;;;;8.15;5.70;;;25.10;93.50;;;;;;4995712;28;20177;-89
2021/07/24 10:19:29;;;;;;;7.13;5.80;;;25.30;94.30;;;;;;4983720;28;21216;-89
2021/07/24 10:21:56;;;;;;;8.20;6.20;;;25.10;92.90;;;;;;4993294;28;20184;-89
2021/07/24 10:24:23;;;;;;;13.07;6.60;;;25.10;93.40;;;;;;5001114;28;20733;-89
2021/07/24 10:27:10;;;;;;;14.13;6.47;;;25.10;93.80;;;;;;5003455;28;20182;-89
2021/07/24 10:29:48;;;;;;;9.02;5.85;;;25.10;93.70;;;;;;4997755;28;20388;-89
2021/07/24 10:32:16;;;;;;;10.85;6.63;;;25.10;92.80;;;;;;5000131;28;20257;-90
2021/07/24 10:34:51;;;;;;;9.25;6.82;;;25.20;93.50;;;;;;5005493;28;20777;-90
2021/07/24 10:37:38;;;;;;;9.63;6.18;;;25.20;93.90;;;;;;4995917;28;20185;-90
2021/07/24 10:40:24;;;;;;;9.50;5.82;;;25.20;93.20;;;;;;4995831;28;20252;-90
2021/07/24 10:42:51;;;;;;;7.93;6.38;;;25.20;90.90;;;;;;4996453;28;20191;-90
2021/07/24 10:45:36;;;;;;;17.98;10.32;;;25.20;91.90;;;;;;5011680;28;20220;-89
2021/07/24 10:48:14;;;;;;;7.40;5.53;;;25.40;91.80;;;;;;5003407;28;20209;-89
2021/07/24 10:50:58;;;;;;;13.65;6.05;;;25.90;91.00;;;;;;5014248;28;20189;-89
2021/07/24 10:53:27;;;;;;;15.75;6.57;;;26.40;90.60;;;;;;5004342;28;20181;-89
2021/07/24 10:55:53;;;;;;;8.13;6.13;;;26.80;91.10;;;;;;5018581;28;20178;-90
2021/07/24 10:58:25;;;;;;;11.80;6.88;;;27.00;90.30;;;;;;5010137;28;20181;-89
2021/07/24 11:00:52;;;;;;;11.70;6.88;;;27.20;90.80;;;;;;4982391;28;20566;-90
2021/07/24 11:03:39;;;;;;;9.02;6.00;;;27.50;88.70;;;;;;5007192;28;20208;-90
2021/07/24 11:06:24;;;;;;;10.15;6.10;;;27.60;86.60;;;;;;5005304;28;20205;-90
2021/07/24 11:09:01;;;;;;;8.13;5.63;;;27.80;85.90;;;;;;5000587;28;20181;-89
2021/07/24 11:11:48;;;;;;;8.85;5.93;;;27.70;83.40;;;;;;5011029;28;20216;-88
2021/07/24 11:14:41;;;;;;;8.05;5.97;;;27.90;79.20;;;;;;4997186;28;20194;-88
2021/07/24 11:17:12;;;;;;;10.38;6.30;;;27.80;78.20;;;;;;5008990;28;20216;-89
2021/07/24 11:19:44;;;;;;;7.35;5.07;;;27.80;79.90;;;;;;5002597;28;20201;-88
2021/07/24 11:22:15;;;;;;;9.82;6.22;;;27.80;78.20;;;;;;5006149;28;20182;-88
2021/07/24 11:25:05;;;;;;;8.70;6.15;;;27.70;78.80;;;;;;5006975;28;20205;-88
2021/07/24 11:27:33;;;;;;;7.72;6.18;;;27.80;79.40;;;;;;4980662;28;20201;-89
2021/07/24 11:30:04;;;;;;;7.07;5.80;;;27.50;78.30;;;;;;4995678;28;20188;-89
2021/07/24 11:32:33;;;;;;;11.73;6.35;;;27.60;78.30;;;;;;4999613;28;20182;-88
2021/07/24 11:35:10;;;;;;;11.07;5.47;;;27.70;78.00;;;;;;4996135;28;20197;-88
2021/07/24 11:37:42;;;;;;;8.65;6.13;;;28.00;79.60;;;;;;5008842;28;20580;-89
2021/07/24 11:40:25;;;;;;;23.20;8.43;;;28.10;81.00;;;;;;5013869;28;20273;-87
2021/07/24 11:43:07;;;;;;;9.02;6.13;;;28.30;81.70;;;;;;5017676;28;20181;-88
2021/07/24 11:45:35;;;;;;;10.30;6.00;;;28.40;79.80;;;;;;4994733;28;20682;-88
2021/07/24 11:48:26;;;;;;;10.20;7.25;;;28.40;80.10;;;;;;5003290;28;20229;-89
2021/07/24 11:51:04;;;;;;;7.72;6.60;;;28.30;76.80;;;;;;4985145;28;20224;-88
2021/07/24 11:53:30;;;;;;;8.55;6.20;;;28.30;77.10;;;;;;4999907;28;20200;-88
2021/07/24 11:55:56;;;;;;;7.60;6.03;;;28.00;78.60;;;;;;5012061;28;20189;-88
2021/07/24 11:58:22;;;;;;;6.72;5.65;;;27.80;78.50;;;;;;5011183;28;20189;-88
2021/07/24 12:00:56;;;;;;;8.23;5.90;;;27.70;78.00;;;;;;4977985;28;20216;-88
2021/07/24 12:03:28;;;;;;;6.80;5.63;;;27.60;78.50;;;;;;4996450;28;20239;-88
2021/07/24 12:06:02;;;;;;;8.25;6.18;;;27.50;76.90;;;;;;4993557;28;20252;-89
2021/07/24 12:08:31;;;;;;;8.18;6.20;;;27.40;76.20;;;;;;4991950;28;20243;-89
2021/07/24 12:10:57;;;;;;;8.82;6.10;;;27.20;76.10;;;;;;5002751;28;20256;-89
2021/07/24 12:13:27;;;;;;;10.35;6.20;;;27.00;78.00;;;;;;5001944;28;20182;-90
2021/07/24 12:16:07;;;;;;;9.45;6.25;;;26.90;78.20;;;;;;4993846;28;20196;-89
2021/07/24 12:18:47;;;;;;;8.15;6.25;;;27.00;78.30;;;;;;5013416;28;20232;-91
2021/07/24 12:21:20;;;;;;;7.90;5.85;;;26.90;75.90;;;;;;4998512;28;20189;-89
2021/07/24 12:23:56;;;;;;;8.25;5.95;;;26.80;79.10;;;;;;5005027;28;20219;-91
2021/07/24 12:26:45;;;;;;;8.75;6.05;;;26.90;76.80;;;;;;5004089;28;20212;-95
2021/07/24 12:29:11;;;;;;;7.10;5.50;;;27.00;79.10;;;;;;4980668;28;20185;-94
2021/07/24 12:31:44;;;;;;;8.07;5.70;;;27.20;78.00;;;;;;5018686;28;20681;-93
2021/07/24 12:34:17;;;;;;;8.05;6.32;;;27.90;78.00;;;;;;4998247;28;20186;-92
2021/07/24 12:37:02;;;;;;;15.85;6.20;;;27.60;78.70;;;;;;5005890;28;20201;-93
2021/07/24 12:39:33;;;;;;;7.50;5.63;;;27.60;77.60;;;;;;4992235;28;20355;-91
2021/07/24 12:42:11;;;;;;;6.25;5.38;;;27.80;79.80;;;;;;4996139;28;20189;-93
2021/07/24 12:45:06;;;;;;;7.22;6.10;;;27.70;74.90;;;;;;5014114;28;20279;-92